Time;durP1;ratioP1;P1;durP2;ratioP2;P2;SDS_P1;SDS_P2;PMS_P1;PMS_P2;Temp;Humidity;BMP_temperature;BMP_pressure;BME280_temperature;BME280_humidity;BME280_pressure;Samples;Min_cycle;Max_cycle;Signal;HPM_P1;HPM_P2
2023/11/07 06:01:02;;;;;;;11.67;4.83;;;;;;;;;;5673697;23;20500;-68
2023/11/07 06:03:28;;;;;;;11.67;4.40;;;;;;;;;;4955442;29;20413;-68
2023/11/07 06:05:54;;;;;;;10.40;3.87;;;;;;;;;;4955900;29;20413;-68
2023/11/07 06:08:20;;;;;;;4.40;2.70;;;;;;;;;;4955815;29;20432;-68
2023/11/07 06:10:46;;;;;;;4.00;2.80;;;;;;;;;;4955572;29;20436;-68
2023/11/07 06:13:12;;;;;;;4.67;2.67;;;;;;;;;;4955591;29;20468;-68
2023/11/07 06:15:38;;;;;;;7.67;2.90;;;;;;;;;;4956158;29;20528;-70
2023/11/07 06:18:04;;;;;;;8.87;3.80;;;;;;;;;;4955512;28;20919;-70
2023/11/07 06:20:30;;;;;;;7.57;2.97;;;;;;;;;;4963719;28;20444;-70
2023/11/07 06:22:56;;;;;;;5.17;2.77;;;;;;;;;;4974190;28;20428;-70
2023/11/07 06:25:23;;;;;;;5.63;3.20;;;;;;;;;;4974980;28;20419;-70
2023/11/07 06:27:51;;;;;;;7.40;3.00;;;;;;;;;;4974813;28;20407;-70
2023/11/07 06:30:17;;;;;;;11.30;3.47;;;;;;;;;;4973798;28;20508;-69
2023/11/07 06:32:43;;;;;;;9.77;4.00;;;;;;;;;;4954991;29;20496;-70
2023/11/07 06:35:09;;;;;;;8.70;3.73;;;;;;;;;;4955187;29;20499;-70
2023/11/07 06:37:35;;;;;;;9.33;4.33;;;;;;;;;;4954961;29;20960;-71
2023/11/07 06:40:13;;;;;;;8.20;4.37;;;;;;;;;;4954890;29;20439;-70
2023/11/07 06:42:39;;;;;;;7.10;4.20;;;;;;;;;;4954690;29;20479;-71
2023/11/07 06:45:05;;;;;;;10.27;4.70;;;;;;;;;;4954857;29;20447;-70
2023/11/07 06:47:31;;;;;;;11.27;3.93;;;;;;;;;;4955271;28;20436;-70
2023/11/07 06:49:57;;;;;;;13.60;3.77;;;;;;;;;;4971546;28;20951;-70
2023/11/07 06:52:23;;;;;;;8.80;3.80;;;;;;;;;;4973711;28;20538;-69
2023/11/07 06:54:50;;;;;;;6.87;3.57;;;;;;;;;;4974330;28;20408;-69
2023/11/07 06:57:16;;;;;;;6.53;3.40;;;;;;;;;;4974029;28;20876;-69
2023/11/07 06:59:42;;;;;;;10.20;3.10;;;;;;;;;;4974074;28;20475;-69
2023/11/07 07:02:07;;;;;;;5.20;2.33;;;;;;;;;;4973555;28;20954;-69
2023/11/07 07:04:34;;;;;;;4.40;2.60;;;;;;;;;;4972121;28;20424;-69
2023/11/07 07:07:00;;;;;;;4.63;2.20;;;;;;;;;;4964067;28;20427;-69
2023/11/07 07:09:27;;;;;;;5.13;2.60;;;;;;;;;;4965024;28;20452;-68
2023/11/07 07:11:53;;;;;;;9.57;2.70;;;;;;;;;;4962643;28;20491;-69
2023/11/07 07:14:19;;;;;;;8.30;2.87;;;;;;;;;;4963655;28;20974;-68
2023/11/07 07:16:46;;;;;;;5.93;3.17;;;;;;;;;;4947235;28;20428;-69
2023/11/07 07:19:17;;;;;;;6.53;2.93;;;;;;;;;;4964414;28;20420;-68
2023/11/07 07:21:43;;;;;;;5.27;3.40;;;;;;;;;;4963630;28;20433;-69
2023/11/07 07:24:15;;;;;;;6.63;3.37;;;;;;;;;;4963084;28;20847;-70
2023/11/07 07:26:46;;;;;;;10.10;3.73;;;;;;;;;;4964010;28;20411;-70
2023/11/07 07:29:16;;;;;;;10.07;3.93;;;;;;;;;;4948776;28;20840;-69
2023/11/07 07:31:42;;;;;;;8.33;3.10;;;;;;;;;;4963446;28;20491;-69
2023/11/07 07:34:08;;;;;;;8.57;4.20;;;;;;;;;;4964143;28;20420;-69
2023/11/07 07:36:43;;;;;;;9.37;4.40;;;;;;;;;;4936896;29;20921;-69
2023/11/07 07:39:27;;;;;;;8.30;4.47;;;;;;;;;;4962714;28;20411;-70
2023/11/07 07:41:54;;;;;;;15.13;4.37;;;;;;;;;;4973080;28;20438;-69
2023/11/07 07:44:20;;;;;;;9.23;4.60;;;;;;;;;;4968981;28;20491;-69
2023/11/07 07:46:46;;;;;;;16.67;4.43;;;;;;;;;;4973487;28;20424;-70
2023/11/07 07:49:14;;;;;;;10.33;3.40;;;;;;;;;;4968728;28;20828;-70
2023/11/07 07:51:42;;;;;;;13.17;3.87;;;;;;;;;;4972826;28;20450;-70
2023/11/07 07:54:08;;;;;;;6.50;3.63;;;;;;;;;;4973013;28;20959;-69
2023/11/07 07:56:34;;;;;;;8.70;4.27;;;;;;;;;;4973427;28;20400;-72
2023/11/07 07:59:00;;;;;;;10.27;4.93;;;;;;;;;;4973436;28;20408;-71
2023/11/07 08:01:26;;;;;;;16.73;4.53;;;;;;;;;;4968043;28;20475;-69
2023/11/07 08:03:53;;;;;;;24.57;5.53;;;;;;;;;;4953132;29;20421;-70
2023/11/07 08:06:19;;;;;;;8.90;4.10;;;;;;;;;;4954653;29;20405;-69
2023/11/07 08:08:45;;;;;;;16.33;4.87;;;;;;;;;;4953697;29;20415;-69
2023/11/07 08:11:13;;;;;;;7.20;3.43;;;;;;;;;;4953591;28;20845;-69
2023/11/07 08:13:39;;;;;;;8.87;3.00;;;;;;;;;;4953324;29;20460;-71
2023/11/07 08:16:06;;;;;;;5.53;3.10;;;;;;;;;;4980336;28;20435;-72
2023/11/07 08:18:32;;;;;;;7.53;2.60;;;;;;;;;;4992656;28;20239;-77
2023/11/07 08:20:58;;;;;;;5.73;2.43;;;;;;;;;;4977387;28;20440;-73
2023/11/07 08:23:26;;;;;;;2.70;1.80;;;;;;;;;;4972847;28;20412;-73
2023/11/07 08:25:52;;;;;;;5.50;2.03;;;;;;;;;;4972662;28;20419;-71
2023/11/07 08:28:18;;;;;;;6.70;2.13;;;;;;;;;;4966546;28;20435;-72
2023/11/07 08:30:44;;;;;;;2.37;1.70;;;;;;;;;;4964003;28;20783;-72
2023/11/07 08:33:10;;;;;;;3.90;2.40;;;;;;;;;;4964853;28;20475;-72
2023/11/07 08:35:37;;;;;;;4.03;1.83;;;;;;;;;;4972575;28;20497;-71
2023/11/07 08:38:03;;;;;;;8.30;2.07;;;;;;;;;;4992044;28;20490;-72
2023/11/07 08:40:29;;;;;;;3.33;1.50;;;;;;;;;;4991631;28;20803;-71
2023/11/07 08:42:56;;;;;;;1.50;1.30;;;;;;;;;;4991986;28;20415;-72
2023/11/07 08:45:22;;;;;;;4.13;1.70;;;;;;;;;;4991185;28;20596;-71
2023/11/07 08:47:52;;;;;;;6.30;2.20;;;;;;;;;;4991998;28;20498;-72
2023/11/07 08:50:21;;;;;;;3.07;1.10;;;;;;;;;;4991992;28;20465;-71
2023/11/07 08:52:47;;;;;;;1.67;1.50;;;;;;;;;;4991609;28;20976;-73
2023/11/07 08:55:16;;;;;;;2.30;1.40;;;;;;;;;;4982011;28;20425;-72
2023/11/07 08:57:44;;;;;;;4.53;1.23;;;;;;;;;;4991928;28;20407;-72
2023/11/07 09:00:11;;;;;;;5.40;1.70;;;;;;;;;;4991149;28;20469;-72
2023/11/07 09:02:38;;;;;;;2.73;1.37;;;;;;;;;;4991491;28;20791;-73
2023/11/07 09:05:04;;;;;;;3.67;1.63;;;;;;;;;;4992043;28;20774;-71
2023/11/07 09:07:30;;;;;;;2.50;1.43;;;;;;;;;;4980779;28;20423;-74
2023/11/07 09:09:57;;;;;;;3.80;1.70;;;;;;;;;;4980752;28;20469;-73
2023/11/07 09:12:23;;;;;;;1.70;1.20;;;;;;;;;;4971879;28;20966;-73
2023/11/07 09:14:49;;;;;;;3.93;1.30;;;;;;;;;;4983169;28;20421;-71
2023/11/07 09:17:15;;;;;;;5.93;1.60;;;;;;;;;;4995835;28;20415;-73
2023/11/07 09:19:41;;;;;;;1.30;1.23;;;;;;;;;;4995072;28;20418;-71
2023/11/07 09:22:09;;;;;;;4.13;1.93;;;;;;;;;;4985533;28;20440;-72
2023/11/07 09:24:35;;;;;;;3.40;1.57;;;;;;;;;;4981905;28;20427;-73
2023/11/07 09:27:01;;;;;;;2.90;1.30;;;;;;;;;;4984172;28;20431;-72
2023/11/07 09:29:27;;;;;;;1.67;1.20;;;;;;;;;;4980994;28;20415;-73
2023/11/07 09:31:53;;;;;;;5.50;1.57;;;;;;;;;;4977587;28;20566;-72
2023/11/07 09:34:24;;;;;;;2.57;1.33;;;;;;;;;;4996069;28;20403;-73
2023/11/07 09:36:50;;;;;;;1.83;1.10;;;;;;;;;;4997033;28;20790;-72
2023/11/07 09:39:16;;;;;;;3.03;1.17;;;;;;;;;;4994715;28;20411;-71
2023/11/07 09:41:45;;;;;;;2.10;1.20;;;;;;;;;;4976354;28;20480;-71
2023/11/07 09:44:11;;;;;;;3.43;1.20;;;;;;;;;;4973249;28;20491;-70
2023/11/07 09:46:37;;;;;;;6.67;1.20;;;;;;;;;;4995320;28;20415;-70
2023/11/07 09:49:03;;;;;;;4.43;1.30;;;;;;;;;;4994515;28;20438;-70
2023/11/07 09:51:32;;;;;;;1.80;1.27;;;;;;;;;;4993972;28;20845;-70
2023/11/07 09:53:59;;;;;;;4.57;1.13;;;;;;;;;;4977169;28;20458;-70
2023/11/07 09:56:28;;;;;;;9.07;1.73;;;;;;;;;;4956016;29;20447;-71
2023/11/07 09:59:00;;;;;;;1.57;1.10;;;;;;;;;;4956875;29;20414;-73
2023/11/07 10:01:25;;;;;;;1.70;1.67;;;;;;;;;;4994522;28;20958;-72
2023/11/07 10:03:52;;;;;;;4.17;1.23;;;;;;;;;;4987747;28;20518;-71
2023/11/07 10:06:19;;;;;;;1.63;1.10;;;;;;;;;;4993227;28;20435;-71
2023/11/07 10:08:45;;;;;;;4.73;0.93;;;;;;;;;;4994440;28;20473;-71
2023/11/07 10:11:13;;;;;;;1.70;1.20;;;;;;;;;;4979996;28;20448;-71
2023/11/07 10:13:39;;;;;;;2.63;1.10;;;;;;;;;;4974382;28;20471;-72
2023/11/07 10:16:06;;;;;;;4.73;1.47;;;;;;;;;;4989975;28;20434;-73
2023/11/07 10:18:46;;;;;;;1.40;1.00;;;;;;;;;;4994227;28;20546;-74
2023/11/07 10:21:12;;;;;;;3.20;1.20;;;;;;;;;;4992201;28;20456;-73
2023/11/07 10:23:39;;;;;;;1.60;1.30;;;;;;;;;;4968673;28;20749;-71
2023/11/07 10:26:11;;;;;;;2.23;1.33;;;;;;;;;;4965020;28;20419;-73
2023/11/07 10:28:37;;;;;;;5.47;1.57;;;;;;;;;;4974113;28;20439;-72
2023/11/07 10:31:04;;;;;;;1.60;1.10;;;;;;;;;;4975632;28;20483;-73
2023/11/07 10:33:34;;;;;;;1.30;1.20;;;;;;;;;;4963319;28;20464;-73
2023/11/07 10:36:01;;;;;;;6.10;1.50;;;;;;;;;;4977791;28;20864;-72
2023/11/07 10:38:31;;;;;;;3.17;1.50;;;;;;;;;;4965462;28;20404;-72
2023/11/07 10:40:57;;;;;;;3.93;1.43;;;;;;;;;;4981346;28;20525;-71
2023/11/07 10:43:39;;;;;;;1.83;1.20;;;;;;;;;;4993346;28;20929;-73
2023/11/07 10:46:11;;;;;;;1.97;1.30;;;;;;;;;;4993509;28;20426;-73
2023/11/07 10:48:39;;;;;;;1.77;1.00;;;;;;;;;;4993497;28;20791;-71
2023/11/07 10:51:05;;;;;;;1.03;0.90;;;;;;;;;;4992896;28;20854;-71
2023/11/07 10:53:34;;;;;;;1.23;1.10;;;;;;;;;;4988318;28;20873;-72
2023/11/07 10:56:03;;;;;;;2.30;1.10;;;;;;;;;;4967911;28;20842;-72
2023/11/07 10:58:31;;;;;;;1.07;0.97;;;;;;;;;;4966345;28;20854;-72
2023/11/07 11:00:58;;;;;;;3.07;0.90;;;;;;;;;;4970988;28;20514;-71
2023/11/07 11:03:25;;;;;;;1.00;0.97;;;;;;;;;;4961851;28;20420;-71
2023/11/07 11:05:53;;;;;;;1.47;1.10;;;;;;;;;;4969784;28;20535;-71
2023/11/07 11:08:21;;;;;;;2.03;0.80;;;;;;;;;;4960331;28;20970;-72
2023/11/07 11:10:47;;;;;;;2.53;1.50;;;;;;;;;;4975594;28;20449;-71
2023/11/07 11:13:15;;;;;;;2.93;0.90;;;;;;;;;;4993567;28;20473;-72
2023/11/07 11:15:42;;;;;;;0.90;0.87;;;;;;;;;;4986548;28;20420;-71
2023/11/07 11:18:10;;;;;;;0.93;0.83;;;;;;;;;;4965652;28;20507;-71
2023/11/07 11:20:40;;;;;;;1.00;0.90;;;;;;;;;;4971218;28;20443;-72
2023/11/07 11:23:10;;;;;;;0.90;0.80;;;;;;;;;;4993182;28;20416;-72
2023/11/07 11:25:54;;;;;;;3.47;1.50;;;;;;;;;;4992990;28;20472;-71
2023/11/07 11:28:36;;;;;;;1.67;1.20;;;;;;;;;;4993052;28;20406;-72
2023/11/07 11:31:03;;;;;;;2.23;1.30;;;;;;;;;;4991313;28;20902;-72
2023/11/07 11:33:29;;;;;;;1.47;1.23;;;;;;;;;;4971818;28;20464;-73
2023/11/07 11:35:55;;;;;;;3.03;1.40;;;;;;;;;;4983445;28;20926;-72
2023/11/07 11:38:23;;;;;;;2.60;1.57;;;;;;;;;;4992963;28;20807;-72
2023/11/07 11:40:53;;;;;;;2.23;1.20;;;;;;;;;;4989630;28;20455;-70
2023/11/07 11:43:20;;;;;;;3.27;1.60;;;;;;;;;;4979252;28;20424;-70
2023/11/07 11:45:47;;;;;;;1.73;1.23;;;;;;;;;;4968773;28;20434;-69
2023/11/07 11:48:13;;;;;;;2.30;1.17;;;;;;;;;;4959982;28;20432;-70
2023/11/07 11:50:39;;;;;;;12.77;5.23;;;;;;;;;;4964266;28;20443;-71
2023/11/07 11:53:05;;;;;;;31.33;14.70;;;;;;;;;;4972693;28;20471;-71
2023/11/07 11:55:50;;;;;;;1.50;1.20;;;;;;;;;;4973414;28;20424;-72
2023/11/07 11:58:16;;;;;;;2.10;1.20;;;;;;;;;;4973269;28;20816;-71
2023/11/07 12:00:44;;;;;;;1.77;1.00;;;;;;;;;;4972918;28;20502;-71
2023/11/07 12:03:15;;;;;;;1.50;1.03;;;;;;;;;;4955723;28;20876;-71
2023/11/07 12:05:41;;;;;;;4.53;2.17;;;;;;;;;;4955960;28;20786;-71
2023/11/07 12:08:26;;;;;;;4.10;1.53;;;;;;;;;;4973223;28;20418;-71
2023/11/07 12:10:55;;;;;;;2.97;1.60;;;;;;;;;;4973072;28;20439;-72
2023/11/07 12:13:23;;;;;;;1.80;1.47;;;;;;;;;;4972964;28;20973;-71
2023/11/07 12:15:51;;;;;;;1.50;1.33;;;;;;;;;;4973446;28;20439;-70
2023/11/07 12:18:21;;;;;;;2.17;1.40;;;;;;;;;;4973073;28;20512;-71
2023/11/07 12:20:48;;;;;;;3.63;2.33;;;;;;;;;;4973248;28;20797;-71
2023/11/07 12:23:15;;;;;;;1.30;1.27;;;;;;;;;;4972732;28;20452;-71
2023/11/07 12:25:50;;;;;;;4.63;1.77;;;;;;;;;;4973169;28;20419;-71
2023/11/07 12:28:16;;;;;;;2.27;1.53;;;;;;;;;;4973056;28;20415;-70
2023/11/07 12:30:43;;;;;;;1.33;1.20;;;;;;;;;;4976270;28;20970;-70
2023/11/07 12:33:09;;;;;;;1.80;1.20;;;;;;;;;;4972994;28;20462;-71
2023/11/07 12:35:36;;;;;;;7.30;1.43;;;;;;;;;;4973075;28;20412;-71
2023/11/07 12:38:13;;;;;;;1.07;0.80;;;;;;;;;;4972789;28;20491;-71
2023/11/07 12:40:39;;;;;;;1.30;0.90;;;;;;;;;;4972862;28;21058;-70
2023/11/07 12:43:07;;;;;;;1.20;0.90;;;;;;;;;;4967104;28;20987;-71
2023/11/07 12:45:36;;;;;;;1.00;0.90;;;;;;;;;;4952810;28;21112;-72
2023/11/07 12:48:06;;;;;;;1.10;1.00;;;;;;;;;;4992101;28;20415;-71
2023/11/07 12:50:33;;;;;;;1.40;0.90;;;;;;;;;;4994776;28;20449;-72
2023/11/07 12:53:03;;;;;;;1.07;1.00;;;;;;;;;;4982314;28;20475;-72
2023/11/07 12:55:30;;;;;;;1.00;0.90;;;;;;;;;;4982613;28;20434;-71
2023/11/07 12:57:57;;;;;;;1.27;1.00;;;;;;;;;;4976201;28;20731;-72
2023/11/07 13:00:24;;;;;;;1.53;1.07;;;;;;;;;;4982914;28;20415;-70
2023/11/07 13:02:54;;;;;;;0.97;0.90;;;;;;;;;;4975702;28;20407;-69
2023/11/07 13:05:21;;;;;;;1.57;1.47;;;;;;;;;;4984341;28;20510;-70
2023/11/07 13:07:47;;;;;;;2.43;1.60;;;;;;;;;;4984432;28;20863;-70
2023/11/07 13:10:14;;;;;;;1.50;1.07;;;;;;;;;;4982831;28;20422;-69
2023/11/07 13:12:41;;;;;;;1.00;0.90;;;;;;;;;;4995245;28;20447;-70
2023/11/07 13:15:09;;;;;;;1.03;1.00;;;;;;;;;;4983899;28;20426;-70
2023/11/07 13:17:36;;;;;;;1.17;1.07;;;;;;;;;;4979157;28;20531;-70
2023/11/07 13:20:06;;;;;;;2.90;1.57;;;;;;;;;;4980531;28;20411;-70
2023/11/07 13:22:32;;;;;;;1.20;1.10;;;;;;;;;;4995060;28;20849;-71
2023/11/07 13:24:58;;;;;;;0.90;0.80;;;;;;;;;;4977441;28;20415;-70
2023/11/07 13:27:24;;;;;;;2.13;1.10;;;;;;;;;;4985082;28;20443;-71
2023/11/07 13:29:50;;;;;;;1.20;1.20;;;;;;;;;;4978436;28;20508;-71
2023/11/07 13:32:16;;;;;;;1.20;0.80;;;;;;;;;;4994507;28;20470;-71
2023/11/07 13:34:42;;;;;;;1.43;0.90;;;;;;;;;;4955936;28;20427;-73
2023/11/07 13:37:09;;;;;;;1.10;1.00;;;;;;;;;;4984512;28;20439;-72
2023/11/07 13:39:35;;;;;;;2.60;1.00;;;;;;;;;;4975652;28;20416;-71
2023/11/07 13:42:01;;;;;;;2.13;1.87;;;;;;;;;;4963025;28;20535;-73
2023/11/07 13:44:27;;;;;;;1.10;1.00;;;;;;;;;;4965433;28;20515;-69
2023/11/07 13:46:53;;;;;;;1.53;1.00;;;;;;;;;;4989433;28;20451;-69
2023/11/07 13:49:19;;;;;;;0.90;0.80;;;;;;;;;;4975405;28;20467;-69
2023/11/07 13:51:45;;;;;;;0.97;0.87;;;;;;;;;;4992045;28;20939;-69
2023/11/07 13:54:11;;;;;;;1.47;1.23;;;;;;;;;;4978505;28;20438;-69
2023/11/07 13:56:37;;;;;;;1.20;0.93;;;;;;;;;;4986073;28;20455;-69
2023/11/07 13:59:05;;;;;;;2.00;1.20;;;;;;;;;;4974660;28;20499;-70
2023/11/07 14:01:31;;;;;;;1.40;1.00;;;;;;;;;;4989436;28;20485;-69
2023/11/07 14:03:57;;;;;;;1.40;0.90;;;;;;;;;;4994715;28;20438;-70
2023/11/07 14:06:24;;;;;;;1.83;1.17;;;;;;;;;;4990256;28;20946;-71
2023/11/07 14:08:50;;;;;;;2.20;1.27;;;;;;;;;;4957802;28;20442;-70
2023/11/07 14:11:16;;;;;;;1.57;1.20;;;;;;;;;;4987162;28;20989;-70
2023/11/07 14:13:43;;;;;;;2.73;1.30;;;;;;;;;;4994130;28;20455;-69
2023/11/07 14:16:09;;;;;;;1.50;1.00;;;;;;;;;;4994392;28;20418;-70
2023/11/07 14:18:36;;;;;;;4.80;1.30;;;;;;;;;;4958562;28;20429;-71
2023/11/07 14:21:03;;;;;;;1.43;1.00;;;;;;;;;;4938458;29;20432;-70
2023/11/07 14:23:30;;;;;;;0.90;0.80;;;;;;;;;;4955387;29;20421;-72
2023/11/07 14:25:58;;;;;;;0.97;0.80;;;;;;;;;;4955812;29;20445;-72
2023/11/07 14:28:24;;;;;;;2.97;1.37;;;;;;;;;;4955258;29;20967;-72
2023/11/07 14:30:50;;;;;;;1.57;0.80;;;;;;;;;;4955372;29;20432;-71
2023/11/07 14:33:17;;;;;;;2.20;1.20;;;;;;;;;;4955272;29;20468;-72
2023/11/07 14:35:45;;;;;;;1.80;1.10;;;;;;;;;;4955419;29;20905;-72
2023/11/07 14:38:11;;;;;;;1.37;1.17;;;;;;;;;;4938112;29;20475;-72
2023/11/07 14:40:37;;;;;;;1.10;1.00;;;;;;;;;;4967922;28;20452;-71
2023/11/07 14:43:06;;;;;;;0.83;0.80;;;;;;;;;;4974726;28;20412;-70
2023/11/07 14:45:32;;;;;;;2.20;0.80;;;;;;;;;;4966198;28;20413;-70
2023/11/07 14:47:59;;;;;;;1.00;0.90;;;;;;;;;;4959841;28;20492;-70
2023/11/07 14:50:25;;;;;;;1.43;1.03;;;;;;;;;;4989742;28;20422;-71
2023/11/07 14:52:52;;;;;;;3.67;1.10;;;;;;;;;;4974630;28;20491;-71
2023/11/07 14:55:19;;;;;;;1.23;0.80;;;;;;;;;;4974444;28;20411;-72
2023/11/07 14:57:46;;;;;;;2.50;1.23;;;;;;;;;;4965372;28;20408;-72
2023/11/07 15:00:29;;;;;;;1.17;1.13;;;;;;;;;;4961856;28;20425;-72
2023/11/07 15:02:56;;;;;;;2.10;0.83;;;;;;;;;;4993192;28;20522;-72
2023/11/07 15:05:23;;;;;;;3.30;1.10;;;;;;;;;;4993694;28;20760;-71
2023/11/07 15:07:50;;;;;;;1.20;1.10;;;;;;;;;;4992904;28;20419;-71
2023/11/07 15:10:15;;;;;;;1.50;0.90;;;;;;;;;;4993425;28;20445;-71
2023/11/07 15:12:41;;;;;;;6.93;3.40;;;;;;;;;;4992582;28;20899;-71
2023/11/07 15:15:08;;;;;;;4.20;1.97;;;;;;;;;;4993615;28;20415;-71
2023/11/07 15:17:34;;;;;;;1.87;1.20;;;;;;;;;;4993068;28;20948;-70
2023/11/07 15:20:01;;;;;;;3.20;1.30;;;;;;;;;;4992973;28;20435;-72
2023/11/07 15:22:27;;;;;;;1.10;1.00;;;;;;;;;;4981348;28;20444;-71
2023/11/07 15:24:53;;;;;;;1.43;1.40;;;;;;;;;;4993179;28;20407;-72
2023/11/07 15:27:18;;;;;;;27.83;1.63;;;;;;;;;;4974464;28;20430;-71
2023/11/07 15:29:45;;;;;;;1.27;0.93;;;;;;;;;;4993010;28;20490;-71
2023/11/07 15:32:12;;;;;;;2.23;1.30;;;;;;;;;;4992748;28;20550;-71
2023/11/07 15:34:38;;;;;;;1.13;1.07;;;;;;;;;;4992902;28;20419;-71
2023/11/07 15:37:05;;;;;;;1.37;1.20;;;;;;;;;;4992777;28;20411;-71
2023/11/07 15:39:31;;;;;;;1.80;1.37;;;;;;;;;;4992664;28;20461;-71
2023/11/07 15:41:57;;;;;;;1.07;1.07;;;;;;;;;;4992845;28;20458;-70
2023/11/07 15:44:23;;;;;;;1.67;1.00;;;;;;;;;;4969231;28;20432;-71
2023/11/07 15:46:49;;;;;;;1.17;0.90;;;;;;;;;;4973256;28;20498;-71
2023/11/07 15:49:15;;;;;;;1.40;0.93;;;;;;;;;;4988797;28;20407;-71
2023/11/07 15:51:41;;;;;;;2.00;1.30;;;;;;;;;;4963767;28;20458;-71
2023/11/07 15:54:07;;;;;;;1.20;0.93;;;;;;;;;;4982617;28;20470;-70
2023/11/07 15:56:37;;;;;;;14.57;1.67;;;;;;;;;;4980310;28;20444;-71
2023/11/07 15:59:10;;;;;;;1.40;1.40;;;;;;;;;;4984680;28;20907;-71
2023/11/07 16:01:37;;;;;;;2.97;1.40;;;;;;;;;;4989703;28;20447;-72
2023/11/07 16:04:03;;;;;;;2.73;1.50;;;;;;;;;;4968421;28;21000;-72
2023/11/07 16:06:29;;;;;;;1.77;1.37;;;;;;;;;;4991824;28;20446;-72
2023/11/07 16:08:55;;;;;;;2.10;1.67;;;;;;;;;;4992757;28;20419;-71
2023/11/07 16:11:23;;;;;;;4.90;1.60;;;;;;;;;;4992725;28;20431;-71
2023/11/07 16:13:49;;;;;;;2.73;1.50;;;;;;;;;;4988813;28;20467;-71
2023/11/07 16:16:15;;;;;;;2.07;1.20;;;;;;;;;;4973052;28;20412;-71
2023/11/07 16:18:41;;;;;;;2.00;1.20;;;;;;;;;;4983147;28;20783;-71
2023/11/07 16:21:08;;;;;;;2.57;1.50;;;;;;;;;;4992739;28;20427;-71
2023/11/07 16:23:34;;;;;;;3.13;1.30;;;;;;;;;;4974591;28;20506;-71
2023/11/07 16:26:00;;;;;;;8.90;2.20;;;;;;;;;;4992472;28;20423;-71
2023/11/07 16:28:29;;;;;;;1.63;1.20;;;;;;;;;;4992489;28;20426;-71
2023/11/07 16:30:57;;;;;;;1.23;1.03;;;;;;;;;;4992470;28;20525;-70
2023/11/07 16:33:23;;;;;;;1.30;1.20;;;;;;;;;;4992261;28;20494;-70
2023/11/07 16:35:49;;;;;;;2.30;1.30;;;;;;;;;;4995368;28;20956;-71
2023/11/07 16:38:15;;;;;;;6.20;1.53;;;;;;;;;;4995590;28;20506;-71
2023/11/07 16:40:41;;;;;;;2.00;1.57;;;;;;;;;;4997323;28;20489;-77
2023/11/07 16:43:08;;;;;;;2.83;1.30;;;;;;;;;;4994570;28;20419;-72
2023/11/07 16:45:34;;;;;;;1.40;1.20;;;;;;;;;;4978074;28;20423;-72
2023/11/07 16:48:00;;;;;;;3.17;1.53;;;;;;;;;;4979970;28;20407;-69
2023/11/07 16:50:26;;;;;;;2.20;1.50;;;;;;;;;;4992509;28;20468;-69
2023/11/07 16:52:52;;;;;;;2.20;1.50;;;;;;;;;;4972847;28;20545;-70
2023/11/07 16:55:18;;;;;;;2.13;1.43;;;;;;;;;;4972736;28;20404;-71
2023/11/07 16:57:45;;;;;;;3.90;1.83;;;;;;;;;;4978573;28;20411;-71
2023/11/07 17:00:12;;;;;;;1.60;1.50;;;;;;;;;;4977135;28;20824;-70
2023/11/07 17:02:39;;;;;;;4.17;1.90;;;;;;;;;;4975306;28;20506;-71
2023/11/07 17:05:06;;;;;;;5.13;1.57;;;;;;;;;;4991859;28;20407;-72
2023/11/07 17:07:33;;;;;;;1.70;1.30;;;;;;;;;;4992135;28;20497;-71
2023/11/07 17:09:59;;;;;;;6.10;2.23;;;;;;;;;;4992014;28;20407;-70
2023/11/07 17:12:25;;;;;;;3.70;2.03;;;;;;;;;;4991989;28;20470;-71
2023/11/07 17:14:51;;;;;;;2.97;1.40;;;;;;;;;;4989197;28;20494;-70
2023/11/07 17:17:17;;;;;;;3.43;1.80;;;;;;;;;;4972360;28;20415;-71
2023/11/07 17:19:43;;;;;;;2.10;1.60;;;;;;;;;;4972693;28;20404;-71
2023/11/07 17:22:09;;;;;;;4.47;2.17;;;;;;;;;;4971603;28;20459;-70
2023/11/07 17:24:37;;;;;;;2.97;1.67;;;;;;;;;;4970347;28;20459;-71
2023/11/07 17:27:03;;;;;;;4.60;2.40;;;;;;;;;;4972436;28;20451;-71
2023/11/07 17:29:30;;;;;;;4.30;2.40;;;;;;;;;;4972447;28;20811;-71
2023/11/07 17:31:57;;;;;;;6.23;2.37;;;;;;;;;;4972158;28;20489;-69
2023/11/07 17:34:23;;;;;;;2.60;1.70;;;;;;;;;;4968144;28;20821;-69
2023/11/07 17:36:50;;;;;;;4.53;2.40;;;;;;;;;;4958756;28;20563;-70
2023/11/07 17:39:16;;;;;;;5.03;2.53;;;;;;;;;;4975695;28;20408;-69
2023/11/07 17:41:43;;;;;;;3.67;2.60;;;;;;;;;;4974739;28;20446;-70
2023/11/07 17:44:09;;;;;;;4.07;2.50;;;;;;;;;;4975637;28;20420;-70
2023/11/07 17:46:35;;;;;;;1.87;1.80;;;;;;;;;;4975660;28;20416;-69
2023/11/07 17:49:03;;;;;;;4.97;2.03;;;;;;;;;;4976001;28;20420;-69
2023/11/07 17:51:30;;;;;;;2.93;2.00;;;;;;;;;;4975272;28;20486;-70
2023/11/07 17:53:56;;;;;;;5.37;2.20;;;;;;;;;;4975730;28;20471;-70
2023/11/07 17:56:23;;;;;;;4.03;2.40;;;;;;;;;;4961412;28;20813;-71
2023/11/07 17:58:52;;;;;;;9.93;3.80;;;;;;;;;;4959803;28;20503;-71
2023/11/07 18:01:19;;;;;;;6.07;3.77;;;;;;;;;;4955572;29;20467;-73
2023/11/07 18:03:46;;;;;;;4.53;2.90;;;;;;;;;;4954880;29;20892;-73
2023/11/07 18:06:12;;;;;;;4.70;2.20;;;;;;;;;;4955115;29;20893;-71
2023/11/07 18:08:39;;;;;;;4.10;2.40;;;;;;;;;;4954958;29;20420;-71
2023/11/07 18:11:05;;;;;;;5.17;2.60;;;;;;;;;;4959508;28;20807;-71
2023/11/07 18:13:31;;;;;;;8.90;3.50;;;;;;;;;;4973139;28;20974;-71
2023/11/07 18:15:57;;;;;;;7.90;4.03;;;;;;;;;;4955327;29;20420;-71
2023/11/07 18:18:29;;;;;;;5.20;2.40;;;;;;;;;;4954738;29;20444;-72
2023/11/07 18:20:55;;;;;;;3.47;2.50;;;;;;;;;;4954677;29;20446;-71
2023/11/07 18:23:21;;;;;;;4.33;2.80;;;;;;;;;;4955670;28;20509;-71
2023/11/07 18:25:47;;;;;;;5.20;2.20;;;;;;;;;;4954696;29;20507;-71
2023/11/07 18:28:13;;;;;;;2.53;2.20;;;;;;;;;;4954676;29;20452;-71
2023/11/07 18:30:39;;;;;;;4.60;3.00;;;;;;;;;;4955267;28;20542;-71
2023/11/07 18:33:05;;;;;;;5.70;2.63;;;;;;;;;;4971692;28;20476;-71
2023/11/07 18:35:31;;;;;;;4.10;3.70;;;;;;;;;;4963075;28;20515;-72
2023/11/07 18:37:57;;;;;;;5.37;3.03;;;;;;;;;;4954776;29;20509;-70
2023/11/07 18:40:23;;;;;;;3.43;2.13;;;;;;;;;;4954430;29;20451;-71
2023/11/07 18:42:49;;;;;;;4.20;2.33;;;;;;;;;;4954409;28;20917;-72
2023/11/07 18:45:16;;;;;;;7.37;2.73;;;;;;;;;;4954292;29;20472;-72
2023/11/07 18:47:42;;;;;;;8.23;3.27;;;;;;;;;;4936626;29;20440;-72
2023/11/07 18:50:09;;;;;;;14.23;3.83;;;;;;;;;;4954661;29;20508;-72
2023/11/07 18:52:35;;;;;;;5.50;3.10;;;;;;;;;;4960217;28;20464;-72
2023/11/07 18:55:05;;;;;;;8.33;3.50;;;;;;;;;;4973484;28;20416;-72
2023/11/07 18:57:31;;;;;;;4.10;2.07;;;;;;;;;;4956108;28;20443;-72
2023/11/07 18:59:57;;;;;;;5.23;2.83;;;;;;;;;;4973005;28;20446;-72
2023/11/07 19:02:26;;;;;;;9.80;3.67;;;;;;;;;;4919549;28;1055300;-72
2023/11/07 19:04:52;;;;;;;5.73;3.30;;;;;;;;;;4955252;29;20189;-71
2023/11/07 19:07:19;;;;;;;7.00;3.70;;;;;;;;;;4971460;28;20439;-71
2023/11/07 19:09:45;;;;;;;4.80;3.47;;;;;;;;;;4974033;28;20409;-71
2023/11/07 19:12:13;;;;;;;6.83;3.73;;;;;;;;;;4973830;28;20455;-71
2023/11/07 19:14:39;;;;;;;6.47;3.90;;;;;;;;;;4974180;28;20747;-71
2023/11/07 19:17:05;;;;;;;6.60;3.40;;;;;;;;;;4974191;28;20412;-71
2023/11/07 19:19:31;;;;;;;11.67;4.03;;;;;;;;;;4972182;28;20432;-70
2023/11/07 19:21:57;;;;;;;13.23;5.60;;;;;;;;;;4954601;29;20472;-72
2023/11/07 19:24:24;;;;;;;6.93;4.00;;;;;;;;;;4952740;28;20862;-71
2023/11/07 19:26:51;;;;;;;7.93;3.60;;;;;;;;;;4974309;28;20411;-70
2023/11/07 19:29:18;;;;;;;9.80;4.70;;;;;;;;;;4973986;28;20919;-71
2023/11/07 19:31:49;;;;;;;6.77;4.10;;;;;;;;;;4968610;28;20972;-71
2023/11/07 19:34:15;;;;;;;9.30;3.17;;;;;;;;;;4970889;28;20471;-71
2023/11/07 19:36:42;;;;;;;9.93;3.73;;;;;;;;;;4941534;29;20948;-71
2023/11/07 19:39:09;;;;;;;6.33;3.00;;;;;;;;;;4954047;28;20427;-71
2023/11/07 19:41:36;;;;;;;7.73;3.63;;;;;;;;;;4960903;28;20459;-71
2023/11/07 19:44:04;;;;;;;4.97;2.87;;;;;;;;;;4966131;28;20795;-71
2023/11/07 19:46:30;;;;;;;7.30;3.10;;;;;;;;;;4959275;28;20997;-71
2023/11/07 19:48:56;;;;;;;7.37;3.67;;;;;;;;;;4971464;28;20432;-70
2023/11/07 19:51:24;;;;;;;7.17;3.80;;;;;;;;;;4973285;28;20459;-70
2023/11/07 19:53:50;;;;;;;9.27;4.50;;;;;;;;;;4971967;28;20472;-71
2023/11/07 19:56:16;;;;;;;8.67;4.30;;;;;;;;;;4973362;28;20411;-71
2023/11/07 19:58:43;;;;;;;8.93;4.30;;;;;;;;;;4959483;28;20429;-71
2023/11/07 20:01:13;;;;;;;5.53;3.20;;;;;;;;;;4954121;29;21016;-70
2023/11/07 20:03:39;;;;;;;9.33;4.00;;;;;;;;;;4953961;29;20427;-70
2023/11/07 20:06:05;;;;;;;6.10;2.80;;;;;;;;;;4954080;29;20761;-70
2023/11/07 20:08:32;;;;;;;4.67;2.97;;;;;;;;;;4959835;28;20432;-71
2023/11/07 20:10:59;;;;;;;6.77;3.57;;;;;;;;;;4972616;28;20451;-70
2023/11/07 20:13:25;;;;;;;6.43;3.73;;;;;;;;;;4973113;28;20905;-70
2023/11/07 20:15:53;;;;;;;6.53;3.20;;;;;;;;;;4973201;28;20543;-70
2023/11/07 20:18:19;;;;;;;10.17;3.47;;;;;;;;;;4972578;28;20424;-70
2023/11/07 20:20:45;;;;;;;5.77;3.27;;;;;;;;;;4973396;28;20424;-69
2023/11/07 20:23:12;;;;;;;7.40;3.50;;;;;;;;;;4973037;28;20498;-70
2023/11/07 20:25:39;;;;;;;7.13;3.43;;;;;;;;;;4973260;28;20407;-70
2023/11/07 20:28:05;;;;;;;6.20;3.10;;;;;;;;;;4973365;28;20490;-70
2023/11/07 20:30:32;;;;;;;4.97;3.00;;;;;;;;;;4972450;28;20891;-70
2023/11/07 20:32:59;;;;;;;6.40;3.13;;;;;;;;;;4972086;28;20467;-70
2023/11/07 20:35:25;;;;;;;10.10;5.43;;;;;;;;;;4973279;28;20415;-70
2023/11/07 20:37:51;;;;;;;7.10;3.90;;;;;;;;;;4973035;28;20416;-70
2023/11/07 20:40:17;;;;;;;6.10;3.00;;;;;;;;;;4973006;28;20498;-69
2023/11/07 20:42:43;;;;;;;9.60;3.70;;;;;;;;;;4972839;28;20534;-70